createdAt,value
2024-03-02T00:00:16.109Z,224
2024-03-02T00:00:35.755Z,219
2024-03-02T00:01:07.807Z,227
2024-03-02T00:01:39.620Z,216
2024-03-02T00:02:11.579Z,218
2024-03-02T00:02:43.698Z,222
2024-03-02T00:03:15.687Z,215
2024-03-02T00:03:47.504Z,219
2024-03-02T00:04:19.489Z,215
2024-03-02T00:04:51.539Z,218
2024-03-02T00:05:23.508Z,215
2024-03-02T00:05:55.442Z,217
2024-03-02T00:06:27.451Z,217
2024-03-02T00:06:59.530Z,196
2024-03-02T00:07:31.278Z,212
2024-03-02T00:08:03.292Z,222
2024-03-02T00:08:35.330Z,208
2024-03-02T00:09:07.180Z,228
2024-03-02T00:09:39.254Z,222
2024-03-02T00:10:11.372Z,218
2024-03-02T00:10:43.351Z,202
2024-03-02T00:11:15.110Z,209
2024-03-02T00:11:47.120Z,227
2024-03-02T00:12:19.177Z,213
2024-03-02T00:12:51.302Z,212
2024-03-02T00:13:23.000Z,200
2024-03-02T00:13:55.038Z,219
2024-03-02T00:14:27.084Z,219
2024-03-02T00:14:59.109Z,214
2024-03-02T00:15:43.664Z,228
2024-03-02T00:16:03.034Z,225
2024-03-02T00:16:34.993Z,211
2024-03-02T00:17:07.139Z,225
2024-03-02T00:17:38.927Z,204
2024-03-02T00:18:10.927Z,218
2024-03-02T00:18:42.934Z,196
2024-03-02T00:19:14.764Z,198
2024-03-02T00:19:46.790Z,215
2024-03-02T00:20:18.926Z,210
2024-03-02T00:20:50.856Z,204
2024-03-02T00:21:22.686Z,222
2024-03-02T00:21:54.722Z,218
2024-03-02T00:22:26.719Z,227
2024-03-02T00:22:58.766Z,225
2024-03-02T00:23:30.576Z,229
2024-03-02T00:24:02.605Z,218
2024-03-02T00:24:34.784Z,229
2024-03-02T00:25:06.795Z,213
2024-03-02T00:25:38.548Z,221
2024-03-02T00:26:10.600Z,229
2024-03-02T00:26:42.578Z,218
2024-03-02T00:27:14.620Z,226
2024-03-02T00:27:46.465Z,229
2024-03-02T00:28:18.490Z,218
2024-03-02T00:28:50.493Z,223
2024-03-02T00:29:22.318Z,202
2024-03-02T00:29:54.358Z,228
2024-03-02T00:30:38.867Z,228
2024-03-02T00:30:58.529Z,225
2024-03-02T00:31:30.334Z,223
2024-03-02T00:32:02.266Z,222
2024-03-02T00:32:34.321Z,230
2024-03-02T00:33:06.359Z,230
2024-03-02T00:33:38.285Z,230
2024-03-02T00:34:10.291Z,230
2024-03-02T00:34:42.231Z,231
2024-03-02T00:35:14.380Z,224
2024-03-02T00:35:46.087Z,226
2024-03-02T00:36:18.453Z,230
2024-03-02T00:36:50.349Z,220
2024-03-02T00:37:22.176Z,229
2024-03-02T00:37:54.003Z,230
2024-03-02T00:38:26.048Z,228
2024-03-02T00:38:58.064Z,228
2024-03-02T00:39:29.929Z,229
2024-03-02T00:40:02.088Z,230
2024-03-02T00:40:33.962Z,229
2024-03-02T00:41:05.988Z,229
2024-03-02T00:41:37.862Z,229
2024-03-02T00:42:09.912Z,229
2024-03-02T00:42:41.939Z,229
2024-03-02T00:43:23.810Z,229
2024-03-02T00:43:47.663Z,237
2024-03-02T00:44:17.800Z,237
2024-03-02T00:44:49.836Z,237
2024-03-02T00:45:34.344Z,237
2024-03-02T00:45:53.785Z,237
2024-03-02T00:46:25.853Z,237
2024-03-02T00:46:57.746Z,237
2024-03-02T00:47:29.597Z,237
2024-03-02T00:48:01.642Z,237
2024-03-02T00:48:34.066Z,237
2024-03-02T00:49:05.836Z,237
2024-03-02T00:49:39.078Z,237
2024-03-02T00:50:16.368Z,237
2024-03-02T00:50:41.562Z,237
2024-03-02T00:51:13.683Z,237
2024-03-02T00:51:45.474Z,239
2024-03-02T00:52:17.448Z,239
2024-03-02T00:52:49.505Z,239
2024-03-02T00:53:21.511Z,239
2024-03-02T00:53:53.336Z,239
2024-03-02T00:54:25.659Z,239
2024-03-02T00:54:57.458Z,239
2024-03-02T00:55:29.341Z,239
2024-03-02T00:56:01.340Z,239
2024-03-02T00:56:33.532Z,239
2024-03-02T00:57:05.327Z,239
2024-03-02T00:57:37.222Z,239
2024-03-02T00:58:09.248Z,239
2024-03-02T00:58:41.227Z,239
2024-03-02T00:59:13.272Z,239
2024-03-02T00:59:45.415Z,239
2024-03-02T01:00:29.670Z,239
2024-03-02T01:00:49.205Z,239
2024-03-02T01:01:21.221Z,239
2024-03-02T01:01:53.063Z,239
2024-03-02T01:02:25.026Z,239
2024-03-02T01:02:57.058Z,239
2024-03-02T01:03:28.927Z,239
2024-03-02T01:04:01.027Z,239
2024-03-02T01:04:32.976Z,239
2024-03-02T01:05:05.105Z,239
2024-03-02T01:05:36.841Z,239
2024-03-02T01:06:09.189Z,239
2024-03-02T01:06:40.917Z,239
2024-03-02T01:07:12.919Z,239
2024-03-02T01:07:45.379Z,239
2024-03-02T01:08:16.766Z,239
2024-03-02T01:08:48.813Z,239
2024-03-02T01:09:20.713Z,239
2024-03-02T01:09:52.718Z,239
2024-03-02T01:10:24.828Z,239
2024-03-02T01:10:56.784Z,239
2024-03-02T01:11:28.614Z,239
2024-03-02T01:12:00.600Z,239
2024-03-02T01:12:33.400Z,239
2024-03-02T01:13:04.700Z,239
2024-03-02T01:13:36.557Z,240
2024-03-02T01:14:08.561Z,240
2024-03-02T01:14:40.561Z,240
2024-03-02T01:15:25.009Z,240
2024-03-02T01:15:44.473Z,240
2024-03-02T01:16:16.443Z,239
2024-03-02T01:16:48.481Z,239
2024-03-02T01:17:20.339Z,239
2024-03-02T01:17:55.718Z,239
2024-03-02T01:18:24.500Z,239
2024-03-02T01:18:56.500Z,239
2024-03-02T01:19:28.267Z,239
2024-03-02T01:20:00.520Z,239
2024-03-02T01:20:32.381Z,239
2024-03-02T01:21:04.142Z,239
2024-03-02T01:21:36.437Z,239
2024-03-02T01:22:08.243Z,239
2024-03-02T01:22:40.296Z,239
2024-03-02T01:23:12.069Z,239
2024-03-02T01:23:44.151Z,239
2024-03-02T01:24:16.181Z,239
2024-03-02T01:24:48.020Z,239
2024-03-02T01:25:20.144Z,239
2024-03-02T01:25:52.042Z,239
2024-03-02T01:26:24.067Z,239
2024-03-02T01:26:55.899Z,239
2024-03-02T01:27:28.014Z,239
2024-03-02T01:28:00.039Z,239
2024-03-02T01:28:32.054Z,240
2024-03-02T01:29:03.967Z,239
2024-03-02T01:29:35.888Z,239
2024-03-02T01:30:20.376Z,239
2024-03-02T01:30:39.928Z,239
2024-03-02T01:31:11.745Z,239
2024-03-02T01:31:43.793Z,239
2024-03-02T01:32:15.811Z,239
2024-03-02T01:32:47.849Z,239
2024-03-02T01:33:19.805Z,239
2024-03-02T01:33:51.731Z,239
2024-03-02T01:34:23.773Z,239
2024-03-02T01:34:55.585Z,239
2024-03-02T01:35:27.805Z,239
2024-03-02T01:35:59.645Z,239
2024-03-02T01:36:31.707Z,239
2024-03-02T01:37:03.584Z,239
2024-03-02T01:37:35.604Z,239
2024-03-02T01:38:07.707Z,239
2024-03-02T01:38:39.686Z,239
2024-03-02T01:39:11.662Z,239
2024-03-02T01:39:43.640Z,239
2024-03-02T01:40:15.781Z,239
2024-03-02T01:40:47.713Z,239
2024-03-02T01:41:19.436Z,239
2024-03-02T01:41:51.460Z,239
2024-03-02T01:42:23.509Z,239
2024-03-02T01:42:55.452Z,239
2024-03-02T01:43:27.303Z,239
2024-03-02T01:43:59.264Z,239
2024-03-02T01:44:31.335Z,239
2024-03-02T01:45:15.590Z,239
2024-03-02T01:45:35.242Z,239
2024-03-02T01:46:07.307Z,239
2024-03-02T01:46:39.236Z,239
2024-03-02T01:47:11.071Z,239
2024-03-02T01:47:43.137Z,239
2024-03-02T01:48:15.210Z,239
2024-03-02T01:48:47.255Z,239
2024-03-02T01:49:19.030Z,239
2024-03-02T01:49:51.014Z,239
2024-03-02T01:50:23.190Z,239
2024-03-02T01:50:55.102Z,239
2024-03-02T01:51:26.949Z,239
2024-03-02T01:51:58.968Z,239
2024-03-02T01:52:30.967Z,239
2024-03-02T01:53:02.801Z,239
2024-03-02T01:53:34.867Z,239
2024-03-02T01:54:06.910Z,239
2024-03-02T01:54:39.037Z,239
2024-03-02T01:55:10.848Z,239
2024-03-02T01:55:42.792Z,239
2024-03-02T01:56:14.801Z,239
2024-03-02T01:56:46.825Z,239
2024-03-02T01:57:19.087Z,239
2024-03-02T01:57:50.701Z,239
2024-03-02T01:58:22.724Z,239
2024-03-02T01:58:54.749Z,239
2024-03-02T01:59:26.579Z,239
2024-03-02T01:59:58.607Z,239
2024-03-02T02:00:43.229Z,239
2024-03-02T02:01:02.662Z,239
2024-03-02T02:01:34.625Z,239
2024-03-02T02:02:06.755Z,239
2024-03-02T02:02:38.556Z,239
2024-03-02T02:03:10.387Z,239
2024-03-02T02:03:42.442Z,239
2024-03-02T02:04:14.456Z,239
2024-03-02T02:04:46.546Z,239
2024-03-02T02:05:18.616Z,239
2024-03-02T02:05:51.776Z,239
2024-03-02T02:06:22.371Z,239
2024-03-02T02:06:54.448Z,239
2024-03-02T02:07:26.307Z,239
2024-03-02T02:07:58.314Z,239
2024-03-02T02:08:30.323Z,239
2024-03-02T02:09:02.339Z,239
2024-03-02T02:09:34.324Z,239
2024-03-02T02:10:06.349Z,239
2024-03-02T02:10:38.213Z,239
2024-03-02T02:11:10.078Z,228
2024-03-02T02:11:42.101Z,229
2024-03-02T02:12:14.114Z,229
2024-03-02T02:12:46.336Z,225
2024-03-02T02:13:17.954Z,228
2024-03-02T02:13:49.984Z,228
2024-03-02T02:14:22.031Z,227
2024-03-02T02:14:54.055Z,228
2024-03-02T02:15:39.486Z,221
2024-03-02T02:15:57.971Z,225
2024-03-02T02:16:30.024Z,226
2024-03-02T02:17:01.985Z,224
2024-03-02T02:17:34.024Z,226
2024-03-02T02:18:05.878Z,225
2024-03-02T02:18:37.932Z,220
2024-03-02T02:19:09.700Z,221
2024-03-02T02:19:41.764Z,225
2024-03-02T02:20:13.879Z,227
2024-03-02T02:20:45.810Z,228
2024-03-02T02:21:17.661Z,228
2024-03-02T02:21:49.688Z,228
2024-03-02T02:22:21.680Z,227
2024-03-02T02:22:53.690Z,228
2024-03-02T02:23:25.526Z,228
2024-03-02T02:23:57.551Z,226
2024-03-02T02:24:29.632Z,227
2024-03-02T02:25:01.815Z,225
2024-03-02T02:25:33.517Z,219
2024-03-02T02:26:05.540Z,226
2024-03-02T02:26:37.552Z,222
2024-03-02T02:27:09.580Z,219
2024-03-02T02:27:41.420Z,199
2024-03-02T02:28:13.404Z,230
2024-03-02T02:28:45.487Z,221
2024-03-02T02:29:17.310Z,217
2024-03-02T02:29:49.306Z,201
2024-03-02T02:30:33.842Z,225
2024-03-02T02:30:53.394Z,221
2024-03-02T02:31:25.191Z,218
2024-03-02T02:31:57.217Z,209
2024-03-02T02:32:29.270Z,216
2024-03-02T02:33:01.395Z,214
2024-03-02T02:33:33.776Z,230
2024-03-02T02:34:05.254Z,223
2024-03-02T02:34:37.172Z,230
2024-03-02T02:35:09.428Z,227
2024-03-02T02:35:41.053Z,205
2024-03-02T02:36:13.093Z,227
2024-03-02T02:36:45.150Z,226
2024-03-02T02:37:17.129Z,226
2024-03-02T02:37:49.051Z,199
2024-03-02T02:38:21.155Z,215
2024-03-02T02:38:53.033Z,228
2024-03-02T02:39:24.886Z,207
2024-03-02T02:39:57.048Z,221
2024-03-02T02:40:29.030Z,221
2024-03-02T02:41:00.953Z,198
2024-03-02T02:41:32.835Z,219
2024-03-02T02:42:04.873Z,205
2024-03-02T02:42:36.853Z,229
2024-03-02T02:43:08.970Z,199
2024-03-02T02:43:40.694Z,220
2024-03-02T02:44:12.738Z,226
2024-03-02T02:44:45.066Z,180
2024-03-02T02:45:29.299Z,228
2024-03-02T02:45:48.658Z,216
2024-03-02T02:46:20.642Z,209
2024-03-02T02:46:52.685Z,196
2024-03-02T02:47:24.714Z,225
2024-03-02T02:47:56.599Z,222
2024-03-02T02:48:28.644Z,207
2024-03-02T02:49:00.666Z,229
2024-03-02T02:49:32.462Z,226
2024-03-02T02:50:04.610Z,227
2024-03-02T02:50:36.511Z,215
2024-03-02T02:51:09.210Z,208
2024-03-02T02:51:40.391Z,223
2024-03-02T02:52:12.412Z,183
2024-03-02T02:52:44.428Z,186
2024-03-02T02:53:16.429Z,226
2024-03-02T02:53:48.287Z,176
2024-03-02T02:54:20.402Z,229
2024-03-02T02:54:52.347Z,217
2024-03-02T02:55:24.501Z,225
2024-03-02T02:55:56.297Z,225
2024-03-02T02:56:28.245Z,204
2024-03-02T02:57:00.294Z,201
2024-03-02T02:57:32.356Z,207
2024-03-02T02:58:04.316Z,215
2024-03-02T02:58:36.174Z,215
2024-03-02T02:59:08.207Z,203
2024-03-02T02:59:40.019Z,231
2024-03-02T03:00:24.591Z,214
2024-03-02T03:00:44.167Z,227
2024-03-02T03:01:16.172Z,212
2024-03-02T03:01:48.000Z,207
2024-03-02T03:02:19.966Z,177
2024-03-02T03:02:52.064Z,200
2024-03-02T03:03:24.046Z,227
2024-03-02T03:03:56.092Z,205
2024-03-02T03:04:27.918Z,216
2024-03-02T03:04:59.947Z,217
2024-03-02T03:05:31.902Z,181
2024-03-02T03:06:03.804Z,175
2024-03-02T03:06:35.874Z,187
2024-03-02T03:07:07.850Z,226
2024-03-02T03:07:39.662Z,214
2024-03-02T03:08:11.709Z,186
2024-03-02T03:08:43.742Z,221
2024-03-02T03:09:15.802Z,179
2024-03-02T03:09:47.660Z,224
2024-03-02T03:10:19.842Z,232
2024-03-02T03:10:51.698Z,207
2024-03-02T03:11:23.720Z,221
2024-03-02T03:11:55.516Z,215
2024-03-02T03:12:27.571Z,210
2024-03-02T03:12:59.695Z,230
2024-03-02T03:13:31.623Z,219
2024-03-02T03:14:03.494Z,225
2024-03-02T03:14:35.467Z,192
2024-03-02T03:15:19.993Z,227
2024-03-02T03:15:39.404Z,225
2024-03-02T03:16:11.381Z,221
2024-03-02T03:16:43.503Z,210
2024-03-02T03:17:15.423Z,210
2024-03-02T03:17:47.310Z,221
2024-03-02T03:18:19.346Z,225
2024-03-02T03:18:51.870Z,225
2024-03-02T03:19:23.344Z,232
2024-03-02T03:19:55.173Z,232
2024-03-02T03:20:27.338Z,228
2024-03-02T03:20:59.238Z,231
2024-03-02T03:21:31.352Z,232
2024-03-02T03:22:03.132Z,229
2024-03-02T03:22:35.107Z,226
2024-03-02T03:23:07.147Z,230
2024-03-02T03:23:39.188Z,227
2024-03-02T03:24:11.012Z,194
2024-03-02T03:24:43.078Z,220
2024-03-02T03:25:15.183Z,231
2024-03-02T03:25:46.952Z,229
2024-03-02T03:26:18.958Z,229
2024-03-02T03:26:51.019Z,227
2024-03-02T03:27:23.042Z,203
2024-03-02T03:27:54.879Z,231
2024-03-02T03:28:26.869Z,227
2024-03-02T03:28:58.990Z,230
2024-03-02T03:29:30.781Z,229
2024-03-02T03:30:15.340Z,221
2024-03-02T03:30:34.879Z,231
2024-03-02T03:31:07.157Z,227
2024-03-02T03:31:38.658Z,228
2024-03-02T03:32:10.692Z,224
2024-03-02T03:32:42.725Z,224
2024-03-02T03:33:14.940Z,196
2024-03-02T03:33:46.623Z,220
2024-03-02T03:34:18.620Z,210
2024-03-02T03:34:50.721Z,231
2024-03-02T03:35:22.823Z,219
2024-03-02T03:35:54.555Z,231
2024-03-02T03:36:26.573Z,231
2024-03-02T03:36:58.611Z,227
2024-03-02T03:37:30.823Z,230
2024-03-02T03:38:02.479Z,230
2024-03-02T03:38:34.486Z,230
2024-03-02T03:39:06.608Z,230
2024-03-02T03:39:38.443Z,227
2024-03-02T03:40:10.475Z,227
2024-03-02T03:40:42.380Z,227
2024-03-02T03:41:14.417Z,227
2024-03-02T03:41:46.267Z,227
2024-03-02T03:42:18.284Z,227
2024-03-02T03:42:50.439Z,232
2024-03-02T03:43:22.321Z,232
2024-03-02T03:43:54.160Z,232
2024-03-02T03:44:26.208Z,232
2024-03-02T03:44:58.217Z,231
2024-03-02T03:45:42.755Z,231
2024-03-02T03:46:02.188Z,231
2024-03-02T03:46:34.104Z,231
2024-03-02T03:47:06.179Z,229
2024-03-02T03:47:38.226Z,230
2024-03-02T03:48:10.035Z,230
2024-03-02T03:48:42.060Z,230
2024-03-02T03:49:14.069Z,230
2024-03-02T03:49:45.901Z,230
2024-03-02T03:50:18.028Z,230
2024-03-02T03:50:49.951Z,230
2024-03-02T03:51:22.005Z,227
2024-03-02T03:51:53.940Z,230
2024-03-02T03:52:25.864Z,230
2024-03-02T03:52:57.863Z,230
2024-03-02T03:53:29.929Z,230
2024-03-02T03:54:01.760Z,230
2024-03-02T03:54:33.907Z,230
2024-03-02T03:55:06.021Z,229
2024-03-02T03:55:37.833Z,227
2024-03-02T03:56:09.665Z,228
2024-03-02T03:56:41.696Z,228
2024-03-02T03:57:13.714Z,228
2024-03-02T03:57:45.805Z,228
2024-03-02T03:58:19.383Z,228
2024-03-02T03:58:49.626Z,228
2024-03-02T03:59:21.657Z,228
2024-03-02T03:59:53.466Z,228
2024-03-02T04:00:37.992Z,228
2024-03-02T04:00:57.721Z,228
2024-03-02T04:01:29.632Z,228
2024-03-02T04:02:01.411Z,226
2024-03-02T04:02:33.427Z,227
2024-03-02T04:03:05.483Z,227
2024-03-02T04:03:37.522Z,225
2024-03-02T04:04:09.338Z,226
2024-03-02T04:04:41.419Z,226
2024-03-02T04:05:13.492Z,219
2024-03-02T04:05:45.399Z,223
2024-03-02T04:06:17.261Z,228
2024-03-02T04:06:49.353Z,227
2024-03-02T04:07:21.300Z,228
2024-03-02T04:07:53.316Z,227
2024-03-02T04:08:25.173Z,219
2024-03-02T04:08:57.191Z,230
2024-03-02T04:09:29.284Z,226
2024-03-02T04:10:01.284Z,230
2024-03-02T04:10:33.073Z,231
2024-03-02T04:11:05.119Z,231
2024-03-02T04:11:37.133Z,226
2024-03-02T04:12:08.963Z,227
2024-03-02T04:12:41.040Z,227
2024-03-02T04:13:13.018Z,222
2024-03-02T04:13:45.088Z,232
2024-03-02T04:14:16.896Z,227
2024-03-02T04:14:48.968Z,230
2024-03-02T04:15:33.409Z,230
2024-03-02T04:15:53.282Z,230
2024-03-02T04:16:24.814Z,231
2024-03-02T04:16:56.931Z,228
2024-03-02T04:17:28.960Z,228
2024-03-02T04:18:00.960Z,231
2024-03-02T04:18:32.773Z,232
2024-03-02T04:19:04.815Z,232
2024-03-02T04:19:36.797Z,232
2024-03-02T04:20:08.775Z,232
2024-03-02T04:20:40.657Z,232
2024-03-02T04:21:12.699Z,232
2024-03-02T04:21:44.744Z,236
2024-03-02T04:22:21.622Z,236
2024-03-02T04:22:48.595Z,236
2024-03-02T04:23:20.594Z,236
2024-03-02T04:23:53.529Z,236
2024-03-02T04:24:24.525Z,236
2024-03-02T04:24:57.482Z,236
2024-03-02T04:25:28.692Z,232
2024-03-02T04:26:02.395Z,232
2024-03-02T04:26:32.389Z,232
2024-03-02T04:27:05.321Z,232
2024-03-02T04:27:36.537Z,232
2024-03-02T04:28:09.505Z,232
2024-03-02T04:28:40.341Z,232
2024-03-02T04:29:13.349Z,230
2024-03-02T04:29:44.402Z,231
2024-03-02T04:30:29.763Z,231
2024-03-02T04:30:48.299Z,231
2024-03-02T04:31:21.256Z,231
2024-03-02T04:31:52.323Z,231
2024-03-02T04:32:25.109Z,231
2024-03-02T04:32:56.300Z,231
2024-03-02T04:33:29.381Z,231
2024-03-02T04:34:00.330Z,231
2024-03-02T04:34:32.939Z,231
2024-03-02T04:35:04.220Z,231
2024-03-02T04:35:37.023Z,231
2024-03-02T04:36:08.136Z,231
2024-03-02T04:36:41.011Z,231
2024-03-02T04:37:11.999Z,231
2024-03-02T04:37:44.940Z,231
2024-03-02T04:38:16.067Z,231
2024-03-02T04:38:48.800Z,231
2024-03-02T04:39:19.951Z,231
2024-03-02T04:39:52.884Z,231
2024-03-02T04:40:23.981Z,231
2024-03-02T04:40:56.812Z,231
2024-03-02T04:41:27.886Z,231
2024-03-02T04:42:00.806Z,231
2024-03-02T04:42:31.727Z,231
2024-03-02T04:43:05.053Z,231
2024-03-02T04:43:35.769Z,231
2024-03-02T04:44:08.584Z,231
2024-03-02T04:44:39.628Z,231
2024-03-02T04:45:25.014Z,231
2024-03-02T04:45:43.723Z,231
2024-03-02T04:46:16.617Z,231
2024-03-02T04:46:47.542Z,231
2024-03-02T04:47:20.537Z,231
2024-03-02T04:47:51.601Z,230
2024-03-02T04:48:24.573Z,231
2024-03-02T04:48:55.574Z,226
2024-03-02T04:49:28.663Z,229
2024-03-02T04:49:59.551Z,229
2024-03-02T04:50:32.506Z,229
2024-03-02T04:51:03.378Z,229
2024-03-02T04:51:36.371Z,229
2024-03-02T04:52:07.452Z,229
2024-03-02T04:52:40.314Z,229
2024-03-02T04:53:11.298Z,230
2024-03-02T04:53:44.328Z,230
2024-03-02T04:54:15.642Z,229
2024-03-02T04:54:48.144Z,229
2024-03-02T04:55:19.338Z,229
2024-03-02T04:55:52.222Z,229
2024-03-02T04:56:23.109Z,229
2024-03-02T04:56:57.151Z,229
2024-03-02T04:57:27.239Z,229
2024-03-02T04:58:00.334Z,229
2024-03-02T04:58:31.037Z,229
2024-03-02T04:59:04.060Z,229
2024-03-02T04:59:35.119Z,229
2024-03-02T05:00:20.866Z,229
2024-03-02T05:00:39.017Z,229
2024-03-02T05:01:12.185Z,229
2024-03-02T05:01:43.054Z,229
2024-03-02T05:02:16.047Z,229
2024-03-02T05:02:46.881Z,229
2024-03-02T05:03:19.933Z,229
2024-03-02T05:03:51.010Z,229
2024-03-02T05:04:23.689Z,229
2024-03-02T05:04:54.884Z,224
2024-03-02T05:05:27.913Z,228
2024-03-02T05:05:58.912Z,229
2024-03-02T05:06:31.833Z,229
2024-03-02T05:07:02.856Z,229
2024-03-02T05:07:35.858Z,229
2024-03-02T05:08:06.781Z,229
2024-03-02T05:08:39.712Z,229
2024-03-02T05:09:10.645Z,229
2024-03-02T05:09:43.670Z,229
2024-03-02T05:10:14.618Z,229
2024-03-02T05:10:47.477Z,229
2024-03-02T05:11:18.610Z,229
2024-03-02T05:11:51.542Z,229
2024-03-02T05:12:22.435Z,229
2024-03-02T05:12:55.530Z,229
2024-03-02T05:13:26.547Z,229
2024-03-02T05:13:59.582Z,229
2024-03-02T05:14:30.422Z,229
2024-03-02T05:15:16.274Z,229
2024-03-02T05:15:34.444Z,229
2024-03-02T05:16:07.381Z,229
2024-03-02T05:16:38.277Z,229
2024-03-02T05:17:11.245Z,229
2024-03-02T05:17:42.360Z,228
2024-03-02T05:18:15.222Z,229
2024-03-02T05:18:46.281Z,229
2024-03-02T05:19:19.151Z,229
2024-03-02T05:19:50.299Z,229
2024-03-02T05:20:23.128Z,229
2024-03-02T05:20:54.136Z,229
2024-03-02T05:21:27.151Z,229
2024-03-02T05:21:58.229Z,229
2024-03-02T05:22:30.949Z,229
2024-03-02T05:23:02.050Z,229
2024-03-02T05:23:35.177Z,229
2024-03-02T05:24:06.210Z,229
2024-03-02T05:24:38.900Z,229
2024-03-02T05:25:10.125Z,229
2024-03-02T05:25:42.923Z,229
2024-03-02T05:26:13.885Z,229
2024-03-02T05:26:46.880Z,229
2024-03-02T05:27:18.095Z,229
2024-03-02T05:27:51.011Z,229
2024-03-02T05:28:21.764Z,229
2024-03-02T05:28:54.807Z,229
2024-03-02T05:29:25.865Z,229
2024-03-02T05:29:58.812Z,229
2024-03-02T05:30:42.202Z,229
2024-03-02T05:31:02.721Z,229
2024-03-02T05:31:34.183Z,229
2024-03-02T05:32:06.603Z,229
2024-03-02T05:32:37.643Z,229
2024-03-02T05:33:10.726Z,229
2024-03-02T05:33:41.786Z,229
2024-03-02T05:34:14.490Z,229
2024-03-02T05:34:45.604Z,229
2024-03-02T05:35:18.623Z,229
2024-03-02T05:35:49.434Z,229
2024-03-02T05:36:22.509Z,229
2024-03-02T05:36:53.574Z,229
2024-03-02T05:37:26.554Z,229
2024-03-02T05:37:57.378Z,229
2024-03-02T05:38:30.328Z,229
2024-03-02T05:39:01.410Z,229
2024-03-02T05:39:34.881Z,229
2024-03-02T05:40:05.440Z,229
2024-03-02T05:40:38.207Z,229
2024-03-02T05:41:09.348Z,229
2024-03-02T05:41:42.274Z,229
2024-03-02T05:42:13.205Z,229
2024-03-02T05:42:46.178Z,229
2024-03-02T05:43:17.264Z,229
2024-03-02T05:43:50.377Z,229
2024-03-02T05:44:21.145Z,229
2024-03-02T05:44:54.166Z,229
2024-03-02T05:45:37.719Z,229
2024-03-02T05:45:59.210Z,229
2024-03-02T05:46:29.065Z,229
2024-03-02T05:47:01.980Z,229
2024-03-02T05:47:33.126Z,229
2024-03-02T05:48:05.994Z,229
2024-03-02T05:48:37.050Z,229
2024-03-02T05:49:09.977Z,229
2024-03-02T05:49:41.154Z,229
2024-03-02T05:50:13.857Z,229
2024-03-02T05:50:44.923Z,229
2024-03-02T05:51:17.872Z,228
2024-03-02T05:51:48.976Z,229
2024-03-02T05:52:21.713Z,229
2024-03-02T05:52:52.819Z,229
2024-03-02T05:53:25.902Z,229
2024-03-02T05:53:57.121Z,229
2024-03-02T05:54:29.750Z,229
2024-03-02T05:55:00.901Z,229
2024-03-02T05:55:33.897Z,229
2024-03-02T05:56:05.579Z,229
2024-03-02T05:56:37.575Z,229
2024-03-02T05:57:08.683Z,229
2024-03-02T05:57:41.627Z,228
2024-03-02T05:58:12.537Z,228
2024-03-02T05:58:45.588Z,228
2024-03-02T05:59:16.619Z,228
2024-03-02T05:59:49.549Z,228
2024-03-02T06:00:33.009Z,228
2024-03-02T06:00:53.481Z,228
2024-03-02T06:01:24.640Z,228
2024-03-02T06:01:57.368Z,225
2024-03-02T06:02:28.400Z,226
2024-03-02T06:03:01.461Z,227
2024-03-02T06:03:32.550Z,227
2024-03-02T06:04:05.422Z,227
2024-03-02T06:04:36.360Z,227
2024-03-02T06:05:09.413Z,227
2024-03-02T06:05:40.224Z,227
2024-03-02T06:06:13.268Z,227
2024-03-02T06:06:44.313Z,227
2024-03-02T06:07:17.207Z,227
2024-03-02T06:07:48.149Z,228
2024-03-02T06:08:21.094Z,228
2024-03-02T06:08:52.189Z,227
2024-03-02T06:09:25.311Z,228
2024-03-02T06:09:56.206Z,228
2024-03-02T06:10:29.221Z,228
2024-03-02T06:11:00.162Z,228
2024-03-02T06:11:33.123Z,228
2024-03-02T06:12:03.975Z,228
2024-03-02T06:12:37.078Z,227
2024-03-02T06:13:08.123Z,227
2024-03-02T06:13:41.269Z,227
2024-03-02T06:14:11.906Z,227
2024-03-02T06:14:44.834Z,227
2024-03-02T06:15:28.424Z,227
2024-03-02T06:15:48.850Z,227
2024-03-02T06:16:19.835Z,227
2024-03-02T06:16:52.773Z,228
2024-03-02T06:17:23.920Z,228
2024-03-02T06:17:56.652Z,227
2024-03-02T06:18:27.771Z,228
2024-03-02T06:19:00.853Z,228
2024-03-02T06:19:31.814Z,228
2024-03-02T06:20:04.752Z,227
2024-03-02T06:20:37.067Z,228
2024-03-02T06:21:08.583Z,228
2024-03-02T06:21:39.763Z,228
2024-03-02T06:22:12.455Z,228
2024-03-02T06:22:43.586Z,228
2024-03-02T06:23:16.628Z,228
2024-03-02T06:23:47.453Z,228
2024-03-02T06:24:21.406Z,228
2024-03-02T06:24:51.541Z,228
2024-03-02T06:25:24.616Z,228
2024-03-02T06:25:55.431Z,228
2024-03-02T06:26:28.431Z,228
2024-03-02T06:26:59.434Z,228
2024-03-02T06:27:32.403Z,228
2024-03-02T06:28:03.367Z,228
2024-03-02T06:28:36.363Z,228
2024-03-02T06:29:07.396Z,227
2024-03-02T06:29:40.113Z,227
2024-03-02T06:30:23.848Z,227
2024-03-02T06:30:44.408Z,227
2024-03-02T06:31:15.404Z,227
2024-03-02T06:31:49.523Z,227
2024-03-02T06:32:19.155Z,227
2024-03-02T06:32:52.130Z,227
2024-03-02T06:33:23.271Z,227
2024-03-02T06:33:56.154Z,227
2024-03-02T06:34:27.098Z,227
2024-03-02T06:35:00.032Z,227
2024-03-02T06:35:31.073Z,227
2024-03-02T06:36:03.978Z,227
2024-03-02T06:36:35.052Z,227
2024-03-02T06:37:08.159Z,227
2024-03-02T06:37:38.863Z,227
2024-03-02T06:38:11.886Z,227
2024-03-02T06:38:43.493Z,227
2024-03-02T06:39:15.987Z,227
2024-03-02T06:39:46.925Z,225
2024-03-02T06:40:19.819Z,226
2024-03-02T06:40:50.863Z,226
2024-03-02T06:41:23.821Z,226
2024-03-02T06:41:55.182Z,225
2024-03-02T06:42:27.685Z,225
2024-03-02T06:42:58.904Z,225
2024-03-02T06:43:31.794Z,225
2024-03-02T06:44:02.637Z,225
2024-03-02T06:44:35.947Z,225
2024-03-02T06:45:19.270Z,225
2024-03-02T06:45:39.452Z,225
2024-03-02T06:46:10.615Z,226
2024-03-02T06:46:43.481Z,226
2024-03-02T06:47:14.619Z,226
2024-03-02T06:47:47.469Z,225
2024-03-02T06:48:18.508Z,226
2024-03-02T06:48:51.513Z,223
2024-03-02T06:49:22.597Z,224
2024-03-02T06:49:55.295Z,225
2024-03-02T06:50:26.535Z,225
2024-03-02T06:50:59.657Z,225
2024-03-02T06:51:30.492Z,225
2024-03-02T06:52:03.388Z,225
2024-03-02T06:52:34.313Z,224
2024-03-02T06:53:07.337Z,225
2024-03-02T06:53:38.389Z,225
2024-03-02T06:54:11.099Z,225
2024-03-02T06:54:42.258Z,224
2024-03-02T06:55:16.172Z,225
2024-03-02T06:55:46.100Z,224
2024-03-02T06:56:19.129Z,224
2024-03-02T06:56:50.243Z,224
2024-03-02T06:57:23.204Z,224
2024-03-02T06:57:54.235Z,224
2024-03-02T06:58:27.164Z,224
2024-03-02T06:58:58.073Z,224
2024-03-02T06:59:32.016Z,224
2024-03-02T07:00:14.564Z,224
2024-03-02T07:00:35.574Z,224
2024-03-02T07:01:06.068Z,224
2024-03-02T07:01:39.059Z,224
2024-03-02T07:02:10.005Z,224
2024-03-02T07:02:42.801Z,224
2024-03-02T07:03:13.928Z,224
2024-03-02T07:03:47.014Z,223
2024-03-02T07:04:17.770Z,224
2024-03-02T07:04:50.759Z,224
2024-03-02T07:05:22.006Z,224
2024-03-02T07:05:54.598Z,224
2024-03-02T07:06:25.753Z,224
2024-03-02T07:06:58.833Z,224
2024-03-02T07:07:29.781Z,224
2024-03-02T07:08:02.631Z,224
2024-03-02T07:08:33.707Z,224
2024-03-02T07:09:06.554Z,224
2024-03-02T07:09:37.733Z,224
2024-03-02T07:10:10.568Z,224
2024-03-02T07:10:41.589Z,224
2024-03-02T07:11:14.639Z,224
2024-03-02T07:11:47.518Z,224
2024-03-02T07:12:18.346Z,224
2024-03-02T07:12:49.497Z,224
2024-03-02T07:13:22.584Z,224
2024-03-02T07:13:53.577Z,224
2024-03-02T07:14:26.247Z,224
2024-03-02T07:14:57.404Z,224
2024-03-02T07:15:42.787Z,224
2024-03-02T07:16:01.458Z,224
2024-03-02T07:16:34.375Z,224
2024-03-02T07:17:05.353Z,224
2024-03-02T07:17:38.422Z,224
2024-03-02T07:18:09.162Z,224
2024-03-02T07:18:42.395Z,224
2024-03-02T07:19:13.428Z,224
2024-03-02T07:19:46.181Z,224
2024-03-02T07:20:17.215Z,224